Arlington, Kansas
Current Conditions -  °F | °C
As of 10:52 PM on Sunday 19 Oct 2014 (Local Time) from KHUT Reporting Station
Clear Clear  
Wind Chill: 58°   Ceiling: Unl
Heat Index: 58°   Visibility: 10mi
Dew Point: 52°   Wind: 6mph
Humidity: 81%   Direction: 140°SE
Pressure: 30.01"   Gusts: NA
Location:  37.9°N, 98.18°W
Report Text: KHUT 200352Z AUTO 14005KT 10SM CLR 14/11 A3001 RMK AO2 SLP151 T01440111
Loading
Personal Weather Stations






























Interactive Weather Map
Tropical Storm Tracking
New forecast layout! Learn more

10-Day Weather Forecast

Advertisements
Track Severe Weather on mobile